createdAt,value
2022-11-29T00:00:23.068Z,8.80
2022-11-29T00:02:27.823Z,8.79
2022-11-29T00:04:31.182Z,8.74
2022-11-29T00:06:36.378Z,8.74
2022-11-29T00:08:41.202Z,8.80
2022-11-29T00:10:44.872Z,8.30
2022-11-29T00:12:47.576Z,8.84
2022-11-29T00:14:50.949Z,8.84
2022-11-29T00:16:56.656Z,8.79
2022-11-29T00:19:01.586Z,8.83
2022-11-29T00:21:07.271Z,8.66
2022-11-29T00:23:10.680Z,8.80
2022-11-29T00:25:14.005Z,8.87
2022-11-29T00:27:17.336Z,8.73
2022-11-29T00:29:20.826Z,8.82
2022-11-29T00:31:26.098Z,8.78
2022-11-29T00:33:29.493Z,8.81
2022-11-29T00:35:34.442Z,8.78
2022-11-29T00:37:37.861Z,8.83
2022-11-29T00:39:41.670Z,8.92
2022-11-29T00:41:45.176Z,8.96
2022-11-29T00:43:48.533Z,8.84
2022-11-29T00:45:52.032Z,8.82
2022-11-29T00:47:55.395Z,8.86
2022-11-29T00:49:58.780Z,8.91
2022-11-29T00:52:03.449Z,8.83
2022-11-29T00:54:07.058Z,8.89
2022-11-29T00:56:10.415Z,8.92
2022-11-29T00:58:13.713Z,8.98
2022-11-29T01:00:18.259Z,8.97
2022-11-29T01:02:21.763Z,8.99
2022-11-29T01:04:25.094Z,9.03
2022-11-29T01:06:28.476Z,9.04
2022-11-29T01:08:33.298Z,9.10
2022-11-29T01:10:36.663Z,9.11
2022-11-29T01:12:40.883Z,9.12
2022-11-29T01:14:44.549Z,8.85
2022-11-29T01:16:48.165Z,9.10
2022-11-29T01:18:51.595Z,9.13
2022-11-29T01:21:00.393Z,9.07
2022-11-29T01:23:03.789Z,9.18
2022-11-29T01:25:10.338Z,9.17
2022-11-29T01:27:14.265Z,9.17
2022-11-29T01:29:17.633Z,9.08
2022-11-29T01:31:23.092Z,9.08
2022-11-29T01:33:26.590Z,9.11
2022-11-29T01:35:29.897Z,9.08
2022-11-29T01:37:33.701Z,9.06
2022-11-29T01:39:37.181Z,9.02
2022-11-29T01:41:41.818Z,9.06
2022-11-29T01:43:58.534Z,9.08
2022-11-29T01:46:01.919Z,9.11
2022-11-29T01:48:05.638Z,8.81
2022-11-29T01:50:10.771Z,9.13
2022-11-29T01:52:19.072Z,9.11
2022-11-29T01:54:23.733Z,9.10
2022-11-29T01:56:28.222Z,9.09
2022-11-29T01:58:33.402Z,8.93
2022-11-29T02:00:37.255Z,9.02
2022-11-29T02:02:44.394Z,8.93
2022-11-29T02:04:49.184Z,8.91
2022-11-29T02:06:52.516Z,8.95
2022-11-29T02:08:56.408Z,8.89
2022-11-29T02:11:32.974Z,8.97
2022-11-29T02:13:43.697Z,8.94
2022-11-29T02:15:54.462Z,8.98
2022-11-29T02:18:05.854Z,8.92
2022-11-29T02:20:33.036Z,8.93
2022-11-29T02:22:42.570Z,8.97
2022-11-29T02:25:03.507Z,8.99
2022-11-29T02:27:28.293Z,8.97
2022-11-29T02:30:12.995Z,9.03
2022-11-29T02:32:54.948Z,9.01
2022-11-29T02:35:11.191Z,9.06
2022-11-29T02:37:31.403Z,9.07
2022-11-29T02:39:57.808Z,9.04
2022-11-29T02:42:25.231Z,9.01
2022-11-29T02:44:54.411Z,9.02
2022-11-29T02:47:09.383Z,8.98
2022-11-29T02:49:22.266Z,9.01
2022-11-29T02:51:34.751Z,9.04
2022-11-29T02:53:44.873Z,9.03
2022-11-29T02:55:54.720Z,8.97
2022-11-29T02:58:03.554Z,8.94
2022-11-29T03:00:11.014Z,8.64
2022-11-29T03:02:24.273Z,8.87
2022-11-29T03:04:34.802Z,8.80
2022-11-29T03:06:44.232Z,8.88
2022-11-29T03:08:53.634Z,8.99
2022-11-29T03:11:04.417Z,9.03
2022-11-29T03:13:21.002Z,8.98
2022-11-29T03:15:30.568Z,9.01
2022-11-29T03:17:47.470Z,9.00
2022-11-29T03:20:08.392Z,9.02
2022-11-29T03:22:20.181Z,9.10
2022-11-29T03:24:32.502Z,9.16
2022-11-29T03:26:42.756Z,9.16
2022-11-29T03:28:52.977Z,8.88
2022-11-29T03:31:07.504Z,9.18
2022-11-29T03:33:16.767Z,9.23
2022-11-29T03:35:26.388Z,9.25
2022-11-29T03:37:36.622Z,9.24
2022-11-29T03:39:48.620Z,9.10
2022-11-29T03:41:58.663Z,9.10
2022-11-29T03:44:08.035Z,9.17
2022-11-29T03:46:16.885Z,9.17
2022-11-29T03:48:28.543Z,9.20
2022-11-29T03:50:40.253Z,9.16
2022-11-29T03:52:50.583Z,9.15
2022-11-29T03:55:04.047Z,9.10
2022-11-29T03:57:07.974Z,8.91
2022-11-29T03:59:36.113Z,8.97
2022-11-29T04:02:24.661Z,9.08
2022-11-29T04:05:02.893Z,9.10
2022-11-29T04:07:23.307Z,9.07
2022-11-29T04:09:42.809Z,9.06
2022-11-29T04:12:16.951Z,9.11
2022-11-29T04:14:33.408Z,9.04
2022-11-29T04:17:05.917Z,9.00
2022-11-29T04:19:36.828Z,9.02
2022-11-29T04:21:56.821Z,8.97
2022-11-29T04:24:27.541Z,9.02
2022-11-29T04:26:52.846Z,8.95
2022-11-29T04:29:14.269Z,8.81
2022-11-29T04:31:29.525Z,8.92
2022-11-29T04:34:14.684Z,8.92
2022-11-29T04:36:39.557Z,8.97
2022-11-29T04:39:01.641Z,8.96
2022-11-29T04:41:36.162Z,9.02
2022-11-29T04:43:52.774Z,9.03
2022-11-29T04:46:26.862Z,9.11
2022-11-29T04:49:04.530Z,9.13
2022-11-29T04:51:20.613Z,9.04
2022-11-29T04:53:31.985Z,9.12
2022-11-29T04:55:45.452Z,9.08
2022-11-29T04:57:55.278Z,8.94
2022-11-29T05:00:09.661Z,9.10
2022-11-29T05:02:32.570Z,9.10
2022-11-29T05:04:48.058Z,8.99
2022-11-29T05:07:02.455Z,9.02
2022-11-29T05:09:16.396Z,8.95
2022-11-29T05:11:27.292Z,8.97
2022-11-29T05:13:43.680Z,8.96
2022-11-29T05:16:06.311Z,9.00
2022-11-29T05:18:20.923Z,9.00
2022-11-29T05:20:32.996Z,9.00
2022-11-29T05:22:43.702Z,8.88
2022-11-29T05:24:57.204Z,9.00
2022-11-29T05:27:15.248Z,8.98
2022-11-29T05:29:26.497Z,8.96
2022-11-29T05:31:46.119Z,8.94
2022-11-29T05:34:12.295Z,8.96
2022-11-29T05:36:25.650Z,9.00
2022-11-29T05:38:50.841Z,8.92
2022-11-29T05:41:06.782Z,9.04
2022-11-29T05:43:28.792Z,9.00
2022-11-29T05:45:38.148Z,8.99
2022-11-29T05:47:51.168Z,8.97
2022-11-29T05:50:01.333Z,9.01
2022-11-29T05:52:22.275Z,9.05
2022-11-29T05:54:30.535Z,9.08
2022-11-29T05:56:46.856Z,9.07
2022-11-29T05:58:53.874Z,9.10
2022-11-29T06:01:05.200Z,9.04
2022-11-29T06:03:18.945Z,9.01
2022-11-29T06:05:31.415Z,9.01
2022-11-29T06:07:44.608Z,8.91
2022-11-29T06:09:52.298Z,8.98
2022-11-29T06:12:02.337Z,9.08
2022-11-29T06:14:13.404Z,9.11
2022-11-29T06:17:06.579Z,9.12
2022-11-29T06:19:34.826Z,9.16
2022-11-29T06:21:47.379Z,9.16
2022-11-29T06:24:05.835Z,9.14
2022-11-29T06:26:20.320Z,9.10
2022-11-29T06:28:43.769Z,9.12
2022-11-29T06:31:02.116Z,8.95
2022-11-29T06:33:15.553Z,9.05
2022-11-29T06:35:40.579Z,9.03
2022-11-29T06:37:49.251Z,9.04
2022-11-29T06:39:53.100Z,9.01
2022-11-29T06:41:56.645Z,8.97
2022-11-29T06:44:00.606Z,8.99
2022-11-29T06:46:13.565Z,8.98
2022-11-29T06:48:23.293Z,8.86
2022-11-29T06:50:37.198Z,8.99
2022-11-29T06:52:48.114Z,9.01
2022-11-29T06:55:04.354Z,9.04
2022-11-29T06:57:17.637Z,8.66
2022-11-29T06:59:35.883Z,8.97
2022-11-29T07:01:44.535Z,9.02
2022-11-29T07:04:04.001Z,9.00
2022-11-29T07:06:15.578Z,8.99
2022-11-29T07:08:21.091Z,9.00
2022-11-29T07:10:25.786Z,9.04
2022-11-29T07:12:29.907Z,9.08
2022-11-29T07:14:33.782Z,9.07
2022-11-29T07:16:44.863Z,9.09
2022-11-29T07:18:59.616Z,9.10
2022-11-29T07:21:16.976Z,9.03
2022-11-29T07:23:29.718Z,9.12
2022-11-29T07:25:42.221Z,9.17
2022-11-29T07:27:54.280Z,9.18
2022-11-29T07:30:11.350Z,9.20
2022-11-29T07:32:23.651Z,9.21
2022-11-29T07:34:36.889Z,9.22
2022-11-29T07:36:50.543Z,9.52
2022-11-29T07:39:04.827Z,10.29
2022-11-29T07:41:15.311Z,9.94
2022-11-29T07:43:32.642Z,9.68
2022-11-29T07:45:37.130Z,9.50
2022-11-29T07:47:40.721Z,9.40
2022-11-29T07:49:45.414Z,9.34
2022-11-29T07:51:49.025Z,9.25
2022-11-29T07:53:52.441Z,9.25
2022-11-29T07:55:55.895Z,9.24
2022-11-29T07:57:59.215Z,9.22
2022-11-29T08:00:03.899Z,9.13
2022-11-29T08:02:15.422Z,9.18
2022-11-29T08:04:18.914Z,9.12
2022-11-29T08:06:27.031Z,9.09
2022-11-29T08:08:30.430Z,9.03
2022-11-29T08:10:34.552Z,9.02
2022-11-29T08:12:42.028Z,8.94
2022-11-29T08:14:45.665Z,8.93
2022-11-29T08:16:49.293Z,8.88
2022-11-29T08:18:55.314Z,8.80
2022-11-29T08:20:58.842Z,8.77
2022-11-29T08:23:03.899Z,8.78
2022-11-29T08:25:08.622Z,8.82
2022-11-29T08:27:12.146Z,8.78
2022-11-29T08:29:15.548Z,8.81
2022-11-29T08:31:19.131Z,8.80
2022-11-29T08:33:22.504Z,8.82
2022-11-29T08:35:26.214Z,8.78
2022-11-29T08:37:29.506Z,8.87
2022-11-29T08:39:34.217Z,8.94
2022-11-29T08:41:37.755Z,8.71
2022-11-29T08:43:41.505Z,9.06
2022-11-29T08:45:44.918Z,9.09
2022-11-29T08:47:48.451Z,9.03
2022-11-29T08:50:04.077Z,8.99
2022-11-29T08:52:25.235Z,9.12
2022-11-29T08:54:28.782Z,9.04
2022-11-29T08:57:16.470Z,9.13
2022-11-29T08:58:57.055Z,9.16
2022-11-29T09:01:00.639Z,9.18
2022-11-29T09:03:23.221Z,9.18
2022-11-29T09:05:26.588Z,9.22
2022-11-29T09:07:30.043Z,9.27
2022-11-29T09:09:33.544Z,9.29
2022-11-29T09:11:38.374Z,9.34
2022-11-29T09:13:43.304Z,9.33
2022-11-29T09:15:46.703Z,9.29
2022-11-29T09:17:50.115Z,9.40
2022-11-29T09:19:53.420Z,9.40
2022-11-29T09:21:56.860Z,9.37
2022-11-29T09:24:02.084Z,9.34
2022-11-29T09:26:07.149Z,9.35
2022-11-29T09:28:12.559Z,8.93
2022-11-29T09:30:22.136Z,9.29
2022-11-29T09:32:27.092Z,9.31
2022-11-29T09:34:30.518Z,9.30
2022-11-29T09:36:33.927Z,9.32
2022-11-29T09:38:38.024Z,9.27
2022-11-29T09:40:47.754Z,9.21
2022-11-29T09:43:00.808Z,9.12
2022-11-29T09:45:09.267Z,9.07
2022-11-29T09:47:26.654Z,9.06
2022-11-29T09:49:56.260Z,9.12
2022-11-29T09:52:06.413Z,9.16
2022-11-29T09:54:24.969Z,9.20
2022-11-29T09:56:33.207Z,9.26
2022-11-29T09:58:44.667Z,9.26
2022-11-29T10:00:53.086Z,8.62
2022-11-29T10:03:02.431Z,9.19
2022-11-29T10:05:12.345Z,9.21
2022-11-29T10:07:21.736Z,9.20
2022-11-29T10:09:34.031Z,9.21
2022-11-29T10:11:42.361Z,9.25
2022-11-29T10:13:51.774Z,9.18
2022-11-29T10:16:01.202Z,9.15
2022-11-29T10:18:12.362Z,9.16
2022-11-29T10:20:19.019Z,9.17
2022-11-29T10:22:27.813Z,9.19
2022-11-29T10:24:33.972Z,9.26
2022-11-29T10:26:38.428Z,9.25
2022-11-29T10:28:45.111Z,9.12
2022-11-29T10:30:49.930Z,9.09
2022-11-29T10:32:58.679Z,9.17
2022-11-29T10:35:02.142Z,9.13
2022-11-29T10:37:07.198Z,9.05
2022-11-29T10:39:16.130Z,9.06
2022-11-29T10:41:23.462Z,9.02
2022-11-29T10:43:27.419Z,9.05
2022-11-29T10:45:33.936Z,9.04
2022-11-29T10:47:37.860Z,9.11
2022-11-29T10:49:42.605Z,9.18
2022-11-29T10:51:47.261Z,9.14
2022-11-29T10:53:54.452Z,9.05
2022-11-29T10:56:03.558Z,9.11
2022-11-29T10:58:16.219Z,9.15
2022-11-29T11:00:19.962Z,9.24
2022-11-29T11:02:24.528Z,9.12
2022-11-29T11:04:30.956Z,9.30
2022-11-29T11:06:46.969Z,9.30
2022-11-29T11:08:54.233Z,9.29
2022-11-29T11:11:01.734Z,9.23
2022-11-29T11:13:08.450Z,9.21
2022-11-29T11:15:27.964Z,9.26
2022-11-29T11:17:32.875Z,9.29
2022-11-29T11:19:37.089Z,9.27
2022-11-29T11:21:40.535Z,9.27
2022-11-29T11:23:53.280Z,9.25
2022-11-29T11:25:59.089Z,9.21
2022-11-29T11:28:15.351Z,9.27
2022-11-29T11:30:23.396Z,9.27
2022-11-29T11:32:27.179Z,9.29
2022-11-29T11:34:34.212Z,9.28
2022-11-29T11:36:37.793Z,9.32
2022-11-29T11:38:42.790Z,9.39
2022-11-29T11:40:47.742Z,9.40
2022-11-29T11:42:51.221Z,9.37
2022-11-29T11:44:55.003Z,9.42
2022-11-29T11:47:00.257Z,9.34
2022-11-29T11:49:03.752Z,9.37
2022-11-29T11:51:08.238Z,9.44
2022-11-29T11:53:22.286Z,9.40
2022-11-29T11:55:33.126Z,9.51
2022-11-29T11:57:37.971Z,9.48
2022-11-29T11:59:41.355Z,9.54
2022-11-29T12:01:47.466Z,9.60
2022-11-29T12:03:57.663Z,9.62
2022-11-29T12:06:13.380Z,9.60
2022-11-29T12:08:17.370Z,9.62
2022-11-29T12:10:25.506Z,9.63
2022-11-29T12:12:32.507Z,9.63
2022-11-29T12:14:46.634Z,9.63
2022-11-29T12:16:56.272Z,9.64
2022-11-29T12:19:04.200Z,9.68
2022-11-29T12:21:14.693Z,9.64
2022-11-29T12:23:28.161Z,9.58
2022-11-29T12:25:35.443Z,9.66
2022-11-29T12:27:38.867Z,9.71
2022-11-29T12:29:43.543Z,9.73
2022-11-29T12:31:59.645Z,9.65
2022-11-29T12:34:10.484Z,9.72
2022-11-29T12:36:28.265Z,9.76
2022-11-29T12:38:45.349Z,9.81
2022-11-29T12:40:54.478Z,9.81
2022-11-29T12:43:06.469Z,9.78
2022-11-29T12:45:26.988Z,9.77
2022-11-29T12:47:51.544Z,9.71
2022-11-29T12:50:07.383Z,9.64
2022-11-29T12:52:19.815Z,9.66
2022-11-29T12:54:45.058Z,9.65
2022-11-29T12:56:58.508Z,9.73
2022-11-29T12:59:18.476Z,9.68
2022-11-29T13:01:30.785Z,9.62
2022-11-29T13:03:45.007Z,9.67
2022-11-29T13:06:02.182Z,9.71
2022-11-29T13:08:24.502Z,9.71
2022-11-29T13:10:41.774Z,9.54
2022-11-29T13:12:50.260Z,9.69
2022-11-29T13:14:59.693Z,9.66
2022-11-29T13:17:06.708Z,9.54
2022-11-29T13:19:15.966Z,9.61
2022-11-29T13:21:27.345Z,9.65
2022-11-29T13:24:07.399Z,9.73
2022-11-29T13:26:02.617Z,9.72
2022-11-29T13:28:08.671Z,9.76
2022-11-29T13:30:15.799Z,9.75
2022-11-29T13:32:32.386Z,9.69
2022-11-29T13:34:42.873Z,9.78
2022-11-29T13:36:55.135Z,9.88
2022-11-29T13:39:09.726Z,9.82
2022-11-29T13:41:20.784Z,9.78
2022-11-29T13:43:31.000Z,9.77
2022-11-29T13:45:43.265Z,9.80
2022-11-29T13:47:53.225Z,9.81
2022-11-29T13:49:59.116Z,9.69
2022-11-29T13:52:06.511Z,9.73
2022-11-29T13:54:28.941Z,9.70
2022-11-29T13:56:42.925Z,9.86
2022-11-29T13:58:46.348Z,9.80
2022-11-29T14:00:52.432Z,9.82
2022-11-29T14:02:58.367Z,9.78
2022-11-29T14:05:02.049Z,9.79
2022-11-29T14:07:18.470Z,9.83
2022-11-29T14:09:27.174Z,9.77
2022-11-29T14:11:34.704Z,9.78
2022-11-29T14:13:49.736Z,9.82
2022-11-29T14:15:57.799Z,9.82
2022-11-29T14:18:07.256Z,9.75
2022-11-29T14:20:50.159Z,9.83
2022-11-29T14:23:15.069Z,9.89
2022-11-29T14:28:00.069Z,9.80
2022-11-29T14:30:03.993Z,9.79
2022-11-29T14:32:22.450Z,9.84
2022-11-29T14:34:44.381Z,9.88
2022-11-29T14:36:54.964Z,9.78
2022-11-29T14:39:09.964Z,9.83
2022-11-29T14:41:24.187Z,9.85
2022-11-29T14:43:34.236Z,9.68
2022-11-29T14:45:37.649Z,9.83
2022-11-29T14:47:49.487Z,9.83
2022-11-29T14:49:56.079Z,9.86
2022-11-29T14:52:16.259Z,9.82
2022-11-29T14:54:21.237Z,9.81
2022-11-29T14:56:39.754Z,9.80
2022-11-29T14:58:43.095Z,9.77
2022-11-29T15:01:11.620Z,9.71
2022-11-29T15:03:21.129Z,9.65
2022-11-29T15:05:32.923Z,9.58
2022-11-29T15:07:36.670Z,9.55
2022-11-29T15:09:42.652Z,9.53
2022-11-29T15:11:51.550Z,9.52
2022-11-29T15:14:00.400Z,9.52
2022-11-29T15:16:20.893Z,9.55
2022-11-29T15:18:44.598Z,9.54
2022-11-29T15:21:00.111Z,9.54
2022-11-29T15:23:07.292Z,9.56
2022-11-29T15:25:14.163Z,9.60
2022-11-29T15:27:18.521Z,9.59
2022-11-29T15:29:22.080Z,9.60
2022-11-29T15:31:25.618Z,9.61
2022-11-29T15:33:30.040Z,9.58
2022-11-29T15:35:35.388Z,9.58
2022-11-29T15:37:44.929Z,9.51
2022-11-29T15:39:48.347Z,9.54
2022-11-29T15:41:51.732Z,9.56
2022-11-29T15:43:58.038Z,9.54
2022-11-29T15:46:01.595Z,9.57
2022-11-29T15:48:13.896Z,9.52
2022-11-29T15:50:25.682Z,9.48
2022-11-29T15:52:33.791Z,9.37
2022-11-29T15:54:43.512Z,9.39
2022-11-29T15:56:49.626Z,9.42
2022-11-29T15:58:57.752Z,9.36
2022-11-29T16:01:02.455Z,9.37
2022-11-29T16:03:08.586Z,9.34
2022-11-29T16:05:18.855Z,9.41
2022-11-29T16:07:25.826Z,9.36
2022-11-29T16:09:33.716Z,9.38
2022-11-29T16:11:39.776Z,9.40
2022-11-29T16:13:59.706Z,9.33
2022-11-29T16:16:09.936Z,9.33
2022-11-29T16:18:25.651Z,9.37
2022-11-29T16:20:30.012Z,9.38
2022-11-29T16:22:33.411Z,9.39
2022-11-29T16:24:37.935Z,9.38
2022-11-29T16:26:45.346Z,9.40
2022-11-29T16:28:50.866Z,9.44
2022-11-29T16:30:54.391Z,9.51
2022-11-29T16:33:00.475Z,9.47
2022-11-29T16:35:09.503Z,9.34
2022-11-29T16:37:19.306Z,9.54
2022-11-29T16:39:25.016Z,9.53
2022-11-29T16:41:33.252Z,9.48
2022-11-29T16:43:55.467Z,9.47
2022-11-29T16:46:27.341Z,9.40
2022-11-29T16:48:32.366Z,9.31
2022-11-29T16:50:35.796Z,9.29
2022-11-29T16:52:39.285Z,9.92
2022-11-29T16:54:42.730Z,9.60
2022-11-29T16:56:46.894Z,9.46
2022-11-29T16:59:17.128Z,9.33
2022-11-29T17:01:20.579Z,9.21
2022-11-29T17:03:23.964Z,9.21
2022-11-29T17:05:28.044Z,9.13
2022-11-29T17:07:33.858Z,9.13
2022-11-29T17:09:37.308Z,9.11
2022-11-29T17:11:40.672Z,9.08
2022-11-29T17:13:44.175Z,9.02
2022-11-29T17:15:48.881Z,9.02
2022-11-29T17:17:52.244Z,9.07
2022-11-29T17:19:55.595Z,9.02
2022-11-29T17:21:59.670Z,9.11
2022-11-29T17:24:03.064Z,9.13
2022-11-29T17:26:07.576Z,9.15
2022-11-29T17:28:10.910Z,9.12
2022-11-29T17:30:15.089Z,9.15
2022-11-29T17:32:24.908Z,9.14
2022-11-29T17:34:29.985Z,9.08
2022-11-29T17:36:33.658Z,9.12
2022-11-29T17:38:37.618Z,9.06
2022-11-29T17:40:41.190Z,9.06
2022-11-29T17:42:44.495Z,9.30
2022-11-29T17:44:47.863Z,9.28
2022-11-29T17:46:51.274Z,9.26
2022-11-29T17:48:56.849Z,9.30
2022-11-29T17:51:00.634Z,9.30
2022-11-29T17:53:04.051Z,9.32
2022-11-29T17:55:08.527Z,9.29
2022-11-29T17:57:12.118Z,9.32
2022-11-29T17:59:15.592Z,9.34
2022-11-29T18:01:21.147Z,9.34
2022-11-29T18:03:24.473Z,9.37
2022-11-29T18:05:34.547Z,9.35
2022-11-29T18:07:57.737Z,9.33
2022-11-29T18:10:01.258Z,9.28
2022-11-29T18:12:04.768Z,9.28
2022-11-29T18:14:08.499Z,9.25
2022-11-29T18:16:14.120Z,9.25
2022-11-29T18:18:17.441Z,9.21
2022-11-29T18:20:20.774Z,9.23
2022-11-29T18:22:25.514Z,9.23
2022-11-29T18:24:28.793Z,9.23
2022-11-29T18:26:33.546Z,9.17
2022-11-29T18:28:38.837Z,9.14
2022-11-29T18:30:42.252Z,9.16
2022-11-29T18:32:45.603Z,9.18
2022-11-29T18:34:49.087Z,9.17
2022-11-29T18:36:54.064Z,8.88
2022-11-29T18:39:00.778Z,9.13
2022-11-29T18:41:07.485Z,9.04
2022-11-29T18:43:10.921Z,9.09
2022-11-29T18:45:14.309Z,9.05
2022-11-29T18:47:17.730Z,9.06
2022-11-29T18:49:21.189Z,8.93
2022-11-29T18:51:24.538Z,8.99
2022-11-29T18:53:27.853Z,8.99
2022-11-29T18:55:32.553Z,8.92
2022-11-29T18:57:36.094Z,8.96
2022-11-29T18:59:39.422Z,8.94
2022-11-29T19:01:43.830Z,8.81
2022-11-29T19:03:50.361Z,8.76
2022-11-29T19:05:54.430Z,8.72
2022-11-29T19:07:57.842Z,8.67
2022-11-29T19:10:01.539Z,8.67
2022-11-29T19:12:07.408Z,8.59
2022-11-29T19:14:12.778Z,8.67
2022-11-29T19:16:18.748Z,8.70
2022-11-29T19:18:23.008Z,8.73
2022-11-29T19:20:26.506Z,8.82
2022-11-29T19:22:30.107Z,8.77
2022-11-29T19:24:33.513Z,8.75
2022-11-29T19:26:36.930Z,8.67
2022-11-29T19:28:42.837Z,8.29
2022-11-29T19:30:46.162Z,8.52
2022-11-29T19:32:49.572Z,9.29
2022-11-29T19:34:52.858Z,8.98
2022-11-29T19:36:56.222Z,8.92
2022-11-29T19:39:01.838Z,8.85
2022-11-29T19:41:09.093Z,8.81
2022-11-29T19:43:12.396Z,8.79
2022-11-29T19:45:18.164Z,8.75
2022-11-29T19:47:21.907Z,8.74
2022-11-29T19:49:25.929Z,8.80
2022-11-29T19:51:30.331Z,8.72
2022-11-29T19:53:33.916Z,8.80
2022-11-29T19:55:43.804Z,8.57
2022-11-29T19:57:47.667Z,8.76
2022-11-29T19:59:51.138Z,8.74
2022-11-29T20:01:55.850Z,8.83
2022-11-29T20:03:59.642Z,8.78
2022-11-29T20:06:04.126Z,8.74
2022-11-29T20:08:08.034Z,8.83
2022-11-29T20:10:12.136Z,8.84
2022-11-29T20:12:15.550Z,8.85
2022-11-29T20:14:19.008Z,8.87
2022-11-29T20:16:22.948Z,8.85
2022-11-29T20:18:31.371Z,8.65
2022-11-29T20:20:35.235Z,8.58
2022-11-29T20:22:38.827Z,8.51
2022-11-29T20:24:45.632Z,8.52
2022-11-29T20:26:50.390Z,8.64
2022-11-29T20:28:54.076Z,8.65
2022-11-29T20:30:57.703Z,8.76
2022-11-29T20:33:01.342Z,8.81
2022-11-29T20:35:07.977Z,8.80
2022-11-29T20:37:32.820Z,8.80
2022-11-29T20:39:45.638Z,8.80
2022-11-29T20:42:00.072Z,8.88
2022-11-29T20:44:04.055Z,8.85
2022-11-29T20:46:08.101Z,8.81
2022-11-29T20:48:17.813Z,8.81
2022-11-29T20:50:24.785Z,8.87
2022-11-29T20:52:37.342Z,8.91
2022-11-29T20:54:40.683Z,8.93
2022-11-29T20:56:44.058Z,8.89
2022-11-29T20:58:47.863Z,8.91
2022-11-29T21:00:52.452Z,8.91
2022-11-29T21:02:55.848Z,8.94
2022-11-29T21:04:59.193Z,8.96
2022-11-29T21:07:03.850Z,8.97
2022-11-29T21:09:08.792Z,8.99
2022-11-29T21:11:12.799Z,8.99
2022-11-29T21:13:16.875Z,8.95
2022-11-29T21:15:21.068Z,8.94
2022-11-29T21:17:30.261Z,8.92
2022-11-29T21:19:37.212Z,8.85
2022-11-29T21:21:44.895Z,8.79
2022-11-29T21:23:57.963Z,8.76
2022-11-29T21:26:07.528Z,8.72
2022-11-29T21:28:13.606Z,8.93
2022-11-29T21:30:20.918Z,8.54
2022-11-29T21:32:26.590Z,8.83
2022-11-29T21:34:30.492Z,8.81
2022-11-29T21:36:33.853Z,8.85
2022-11-29T21:38:37.426Z,8.92
2022-11-29T21:40:42.140Z,8.95
2022-11-29T21:42:45.504Z,8.95
2022-11-29T21:44:49.124Z,9.03
2022-11-29T21:46:52.588Z,8.80
2022-11-29T21:48:56.129Z,8.73
2022-11-29T21:50:59.684Z,8.68
2022-11-29T21:53:03.019Z,8.69
2022-11-29T21:55:07.123Z,8.41
2022-11-29T21:57:11.913Z,8.70
2022-11-29T21:59:15.294Z,8.62
2022-11-29T22:01:20.895Z,8.67
2022-11-29T22:03:24.334Z,8.69
2022-11-29T22:05:27.695Z,8.70
2022-11-29T22:07:31.046Z,8.66
2022-11-29T22:09:34.431Z,8.63
2022-11-29T22:11:37.832Z,8.62
2022-11-29T22:13:58.853Z,8.59
2022-11-29T22:16:07.566Z,8.58
2022-11-29T22:18:11.596Z,8.51
2022-11-29T22:20:17.397Z,8.51
2022-11-29T22:22:20.822Z,8.49
2022-11-29T22:24:25.575Z,8.48
2022-11-29T22:26:29.505Z,8.41
2022-11-29T22:28:33.055Z,8.48
2022-11-29T22:30:37.759Z,8.52
2022-11-29T22:32:41.169Z,8.48
2022-11-29T22:34:44.896Z,8.46
2022-11-29T22:36:48.683Z,8.46
2022-11-29T22:38:52.461Z,8.53
2022-11-29T22:41:00.603Z,8.57
2022-11-29T22:43:06.719Z,8.56
2022-11-29T22:45:10.737Z,8.52
2022-11-29T22:47:16.398Z,8.27
2022-11-29T22:49:20.465Z,8.21
2022-11-29T22:51:25.164Z,8.16
2022-11-29T22:53:28.490Z,8.22
2022-11-29T22:55:31.834Z,8.25
2022-11-29T22:57:35.170Z,8.27
2022-11-29T22:59:38.576Z,8.35
2022-11-29T23:01:43.106Z,8.32
2022-11-29T23:03:51.712Z,8.29
2022-11-29T23:05:55.072Z,8.27
2022-11-29T23:07:58.875Z,8.21
2022-11-29T23:10:02.355Z,8.23
2022-11-29T23:12:06.088Z,8.31
2022-11-29T23:14:10.266Z,8.18
2022-11-29T23:16:15.252Z,8.24
2022-11-29T23:18:21.416Z,8.11
2022-11-29T23:20:26.194Z,8.25
2022-11-29T23:22:31.658Z,8.27
2022-11-29T23:24:35.057Z,8.20
2022-11-29T23:26:40.695Z,8.08
2022-11-29T23:28:44.079Z,8.26
2022-11-29T23:30:47.801Z,8.28
2022-11-29T23:32:51.157Z,8.22
2022-11-29T23:34:54.472Z,8.15
2022-11-29T23:36:59.170Z,8.17
2022-11-29T23:39:02.631Z,8.16
2022-11-29T23:41:06.811Z,8.14
2022-11-29T23:43:10.183Z,8.05
2022-11-29T23:45:13.503Z,8.13
2022-11-29T23:47:16.907Z,8.07
2022-11-29T23:49:20.425Z,8.19
2022-11-29T23:51:23.757Z,8.22
2022-11-29T23:53:28.631Z,8.18
2022-11-29T23:55:32.120Z,8.18
2022-11-29T23:57:35.436Z,8.15
2022-11-29T23:59:38.777Z,8.16
